Fortune Wing — VRHW2 — position and weather

sailwx.info

Track history (hours):
 
Tides and Currents Weather Stations Pressure Air Temp Water Temp Dewpoint Dewpoint Depression Visibility Wind Speed Wind Dir Waves Ship Positions

Fortune Wing

Last reported at 2016-Jul-28 11:12 UTC. Time now 2016-Jul-28 14:28 UTC.
Position N 40°58' E 028°56'.

Length 190 m; draft 6.5 m.

Type: Cargo ship. MMSI: 477389500.

Date/timePositionNaut miles runAvg speedWind from/ knotsBaromVisibWave heightAir tempDewpointWater temp
2016-Jul-28 11:12N 40°58' E 028°56'0 0.0
2016-Jul-28 10:31N 40°58' E 028°56'1 0.5
2016-Jul-28 09:32N 40°58' E 028°57'6 5.9
2016-Jul-28 08:33N 40°52' E 028°54'13611.1
2016-Jul-27 20:22N 40°00' E 026°09'13611.5
2016-Jul-27 08:33N 37°46' E 025°44'1712.8
2016-Jul-27 07:15N 37°30' E 025°50'20812.5
2016-Jul-26 14:33N 34°52' E 028°38'2512.4
2016-Jul-26 12:33N 34°34' E 028°58'1412.4
2016-Jul-26 11:27N 34°23' E 029°08'2712.4
2016-Jul-26 09:14N 34°02' E 029°30'812.1
2016-Jul-26 08:33N 33°56' E 029°36'6512.5
2016-Jul-26 03:23N 33°05' E 030°25'1112.4
2016-Jul-26 02:30N 32°57' E 030°34'1212.2
2016-Jul-26 01:32N 32°48' E 030°43'1311.9
2016-Jul-26 00:26N 32°38' E 030°53'1111.8
2016-Jul-25 23:31N 32°30' E 031°01'1212.0
2016-Jul-25 22:33N 32°21' E 031°10'1212.5
2016-Jul-25 21:33N 32°11' E 031°19'1312.4
2016-Jul-25 20:30N 32°01' E 031°29'1212.1
2016-Jul-25 19:32N 31°55' E 031°40'1511.8
2016-Jul-25 18:16N 31°47' E 031°55'811.7
2016-Jul-25 17:33N 31°42' E 032°03'1211.6
2016-Jul-25 16:32N 31°33' E 032°13'1111.6
2016-Jul-25 15:33N 31°27' E 032°24'1010.4
2016-Jul-25 14:33N 31°16' E 032°22'8 8.3
2016-Jul-25 13:33N 31°08' E 032°19'9 8.8
2016-Jul-25 12:33N 30°60' E 032°19'  
Track history (hours):
 
Tides and Currents Weather Stations Pressure Air Temp Water Temp Dewpoint Dewpoint Depression Visibility Wind Speed Wind Dir Waves Ship Positions

Fortune Wing

Last reported at 2016-Jul-28 11:12 UTC. Time now 2016-Jul-28 14:28 UTC.
Position N 40°58' E 028°56'.

Length 190 m; draft 6.5 m.

Type: Cargo ship. MMSI: 477389500.

Date/timePositionNaut miles runAvg speedWind from/ knotsBaromVisibWave heightAir tempDewpointWater temp
2016-Jul-28 11:12N 40°58' E 028°56'0 0.0
2016-Jul-28 10:31N 40°58' E 028°56'1 0.5
2016-Jul-28 09:32N 40°58' E 028°57'6 5.9
2016-Jul-28 08:33N 40°52' E 028°54'13611.1
2016-Jul-27 20:22N 40°00' E 026°09'13611.5
2016-Jul-27 08:33N 37°46' E 025°44'1712.8
2016-Jul-27 07:15N 37°30' E 025°50'20812.5
2016-Jul-26 14:33N 34°52' E 028°38'2512.4
2016-Jul-26 12:33N 34°34' E 028°58'1412.4
2016-Jul-26 11:27N 34°23' E 029°08'2712.4
2016-Jul-26 09:14N 34°02' E 029°30'812.1
2016-Jul-26 08:33N 33°56' E 029°36'6512.5
2016-Jul-26 03:23N 33°05' E 030°25'1112.4
2016-Jul-26 02:30N 32°57' E 030°34'1212.2
2016-Jul-26 01:32N 32°48' E 030°43'1311.9
2016-Jul-26 00:26N 32°38' E 030°53'1111.8
2016-Jul-25 23:31N 32°30' E 031°01'1212.0
2016-Jul-25 22:33N 32°21' E 031°10'1212.5
2016-Jul-25 21:33N 32°11' E 031°19'1312.4
2016-Jul-25 20:30N 32°01' E 031°29'1212.1
2016-Jul-25 19:32N 31°55' E 031°40'1511.8
2016-Jul-25 18:16N 31°47' E 031°55'811.7
2016-Jul-25 17:33N 31°42' E 032°03'1211.6
2016-Jul-25 16:32N 31°33' E 032°13'1111.6
2016-Jul-25 15:33N 31°27' E 032°24'1010.4
2016-Jul-25 14:33N 31°16' E 032°22'8 8.3
2016-Jul-25 13:33N 31°08' E 032°19'9 8.8
2016-Jul-25 12:33N 30°60' E 032°19'  

Dump ship's entire track history